<?xml version="1.0" encoding="UTF-8"?>
<gpx xmlns="http://www.topografix.com/GPX/1/1" xmlns:xsi="http://www.w3.org/2001/XMLSchema-instance" version="1.1" xsi:schemaLocation="http://www.topografix.com/GPX/1/1 http://www.topografix.com/GPX/1/1/gpx.xsd">
  <metadata>
    <name>Dave Parcells Madison Triathlon</name>
  </metadata>
  <trk>
    <name>Dave Parcells Madison Triathlon</name>
    <trkseg>
      <trkpt lat="41.272683" lon="-72.60935">
        <ele>2.79594</ele>
        <time>2026-09-12T07:16:06.000Z</time>
      </trkpt>
      <trkpt lat="41.272684" lon="-72.609352">
        <ele>2.795936</ele>
        <time>2026-09-12T07:16:06.000Z</time>
      </trkpt>
      <trkpt lat="41.272624" lon="-72.608334">
        <ele>2.795941</ele>
        <time>2026-09-12T07:16:15.000Z</time>
      </trkpt>
      <trkpt lat="41.272616" lon="-72.608174">
        <ele>2.795942</ele>
        <time>2026-09-12T07:16:16.000Z</time>
      </trkpt>
      <trkpt lat="41.272598" lon="-72.607852">
        <ele>2.645076</ele>
        <time>2026-09-12T07:16:19.000Z</time>
      </trkpt>
      <trkpt lat="41.272277" lon="-72.607884">
        <ele>2.436169</ele>
        <time>2026-09-12T07:16:23.000Z</time>
      </trkpt>
      <trkpt lat="41.27223" lon="-72.607895">
        <ele>2.395585</ele>
        <time>2026-09-12T07:16:24.000Z</time>
      </trkpt>
      <trkpt lat="41.27184" lon="-72.607926">
        <ele>2.138797</ele>
        <time>2026-09-12T07:16:28.000Z</time>
      </trkpt>
      <trkpt lat="41.27169" lon="-72.607938">
        <ele>2.039643</ele>
        <time>2026-09-12T07:16:30.000Z</time>
      </trkpt>
      <trkpt lat="41.271377" lon="-72.607958">
        <ele>1.827823</ele>
        <time>2026-09-12T07:16:33.000Z</time>
      </trkpt>
      <trkpt lat="41.271374" lon="-72.60715">
        <ele>1.492293</ele>
        <time>2026-09-12T07:16:40.000Z</time>
      </trkpt>
      <trkpt lat="41.27137" lon="-72.607097">
        <ele>1.473909</ele>
        <time>2026-09-12T07:16:40.000Z</time>
      </trkpt>
      <trkpt lat="41.271419" lon="-72.60667">
        <ele>1.346211</ele>
        <time>2026-09-12T07:16:44.000Z</time>
      </trkpt>
      <trkpt lat="41.271469" lon="-72.60637">
        <ele>1.245921</ele>
        <time>2026-09-12T07:16:47.000Z</time>
      </trkpt>
      <trkpt lat="41.271606" lon="-72.60574">
        <ele>1.048248</ele>
        <time>2026-09-12T07:16:52.000Z</time>
      </trkpt>
      <trkpt lat="41.271572" lon="-72.604782">
        <ele>1.037498</ele>
        <time>2026-09-12T07:17:00.000Z</time>
      </trkpt>
      <trkpt lat="41.271583" lon="-72.604684">
        <ele>1.075163</ele>
        <time>2026-09-12T07:17:01.000Z</time>
      </trkpt>
      <trkpt lat="41.271567" lon="-72.604308">
        <ele>1.243829</ele>
        <time>2026-09-12T07:17:04.000Z</time>
      </trkpt>
      <trkpt lat="41.271548" lon="-72.603706">
        <ele>1.521058</ele>
        <time>2026-09-12T07:17:09.000Z</time>
      </trkpt>
      <trkpt lat="41.271523" lon="-72.602992">
        <ele>1.840579</ele>
        <time>2026-09-12T07:17:15.000Z</time>
      </trkpt>
      <trkpt lat="41.271535" lon="-72.602873">
        <ele>1.888624</ele>
        <time>2026-09-12T07:17:16.000Z</time>
      </trkpt>
      <trkpt lat="41.271511" lon="-72.602062">
        <ele>2.209041</ele>
        <time>2026-09-12T07:17:23.000Z</time>
      </trkpt>
      <trkpt lat="41.271493" lon="-72.601658">
        <ele>2.365073</ele>
        <time>2026-09-12T07:17:26.000Z</time>
      </trkpt>
      <trkpt lat="41.271469" lon="-72.600799">
        <ele>2.69149</ele>
        <time>2026-09-12T07:17:33.000Z</time>
      </trkpt>
      <trkpt lat="41.271915" lon="-72.600772">
        <ele>2.902788</ele>
        <time>2026-09-12T07:17:38.000Z</time>
      </trkpt>
      <trkpt lat="41.272067" lon="-72.600763">
        <ele>2.961819</ele>
        <time>2026-09-12T07:17:40.000Z</time>
      </trkpt>
      <trkpt lat="41.272175" lon="-72.600751">
        <ele>3.001688</ele>
        <time>2026-09-12T07:17:41.000Z</time>
      </trkpt>
      <trkpt lat="41.272322" lon="-72.600743">
        <ele>3.057643</ele>
        <time>2026-09-12T07:17:43.000Z</time>
      </trkpt>
      <trkpt lat="41.272397" lon="-72.600746">
        <ele>3.090615</ele>
        <time>2026-09-12T07:17:44.000Z</time>
      </trkpt>
      <trkpt lat="41.272428" lon="-72.600742">
        <ele>3.10249</ele>
        <time>2026-09-12T07:17:44.000Z</time>
      </trkpt>
      <trkpt lat="41.273053" lon="-72.600691">
        <ele>3.338199</ele>
        <time>2026-09-12T07:17:51.000Z</time>
      </trkpt>
      <trkpt lat="41.273087" lon="-72.600698">
        <ele>3.35505</ele>
        <time>2026-09-12T07:17:51.000Z</time>
      </trkpt>
      <trkpt lat="41.273586" lon="-72.600642">
        <ele>3.546535</ele>
        <time>2026-09-12T07:17:57.000Z</time>
      </trkpt>
      <trkpt lat="41.274791" lon="-72.600519">
        <ele>4.544392</ele>
        <time>2026-09-12T07:18:10.000Z</time>
      </trkpt>
      <trkpt lat="41.275082" lon="-72.600504">
        <ele>4.792938</ele>
        <time>2026-09-12T07:18:13.000Z</time>
      </trkpt>
      <trkpt lat="41.275285" lon="-72.600492">
        <ele>4.956993</ele>
        <time>2026-09-12T07:18:15.000Z</time>
      </trkpt>
      <trkpt lat="41.275996" lon="-72.600447">
        <ele>5.601744</ele>
        <time>2026-09-12T07:18:23.000Z</time>
      </trkpt>
      <trkpt lat="41.276266" lon="-72.600431">
        <ele>5.850668</ele>
        <time>2026-09-12T07:18:26.000Z</time>
      </trkpt>
      <trkpt lat="41.276295" lon="-72.600435">
        <ele>5.862406</ele>
        <time>2026-09-12T07:18:26.000Z</time>
      </trkpt>
      <trkpt lat="41.276868" lon="-72.600404">
        <ele>6.378309</ele>
        <time>2026-09-12T07:18:32.000Z</time>
      </trkpt>
      <trkpt lat="41.27698" lon="-72.60043">
        <ele>6.491993</ele>
        <time>2026-09-12T07:18:33.000Z</time>
      </trkpt>
      <trkpt lat="41.277622" lon="-72.600589">
        <ele>6.58855</ele>
        <time>2026-09-12T07:18:40.000Z</time>
      </trkpt>
      <trkpt lat="41.278813" lon="-72.600879">
        <ele>6.355883</ele>
        <time>2026-09-12T07:18:53.000Z</time>
      </trkpt>
      <trkpt lat="41.278881" lon="-72.600909">
        <ele>6.343334</ele>
        <time>2026-09-12T07:18:54.000Z</time>
      </trkpt>
      <trkpt lat="41.279142" lon="-72.60096">
        <ele>6.408543</ele>
        <time>2026-09-12T07:18:57.000Z</time>
      </trkpt>
      <trkpt lat="41.279192" lon="-72.600555">
        <ele>6.528484</ele>
        <time>2026-09-12T07:19:00.000Z</time>
      </trkpt>
      <trkpt lat="41.279215" lon="-72.600471">
        <ele>6.552455</ele>
        <time>2026-09-12T07:19:01.000Z</time>
      </trkpt>
      <trkpt lat="41.279254" lon="-72.600113">
        <ele>6.656656</ele>
        <time>2026-09-12T07:19:04.000Z</time>
      </trkpt>
      <trkpt lat="41.279323" lon="-72.60014">
        <ele>6.68745</ele>
        <time>2026-09-12T07:19:05.000Z</time>
      </trkpt>
      <trkpt lat="41.280481" lon="-72.600465">
        <ele>7.257232</ele>
        <time>2026-09-12T07:19:18.000Z</time>
      </trkpt>
      <trkpt lat="41.280953" lon="-72.600602">
        <ele>7.630769</ele>
        <time>2026-09-12T07:19:23.000Z</time>
      </trkpt>
      <trkpt lat="41.281217" lon="-72.600669">
        <ele>7.837358</ele>
        <time>2026-09-12T07:19:26.000Z</time>
      </trkpt>
      <trkpt lat="41.281222" lon="-72.600854">
        <ele>7.94838</ele>
        <time>2026-09-12T07:19:28.000Z</time>
      </trkpt>
      <trkpt lat="41.281221" lon="-72.601125">
        <ele>8.096012</ele>
        <time>2026-09-12T07:19:30.000Z</time>
      </trkpt>
      <trkpt lat="41.281238" lon="-72.601401">
        <ele>8.257279</ele>
        <time>2026-09-12T07:19:32.000Z</time>
      </trkpt>
      <trkpt lat="41.281266" lon="-72.601832">
        <ele>8.489256</ele>
        <time>2026-09-12T07:19:36.000Z</time>
      </trkpt>
      <trkpt lat="41.281325" lon="-72.602488">
        <ele>8.789215</ele>
        <time>2026-09-12T07:19:42.000Z</time>
      </trkpt>
      <trkpt lat="41.281324" lon="-72.602652">
        <ele>8.865156</ele>
        <time>2026-09-12T07:19:43.000Z</time>
      </trkpt>
      <trkpt lat="41.281261" lon="-72.602983">
        <ele>9.020705</ele>
        <time>2026-09-12T07:19:46.000Z</time>
      </trkpt>
      <trkpt lat="41.280888" lon="-72.604147">
        <ele>9.476913</ele>
        <time>2026-09-12T07:19:57.000Z</time>
      </trkpt>
      <trkpt lat="41.280663" lon="-72.60474">
        <ele>9.380849</ele>
        <time>2026-09-12T07:20:03.000Z</time>
      </trkpt>
      <trkpt lat="41.281013" lon="-72.604981">
        <ele>9.305549</ele>
        <time>2026-09-12T07:20:07.000Z</time>
      </trkpt>
      <trkpt lat="41.281392" lon="-72.605292">
        <ele>9.221423</ele>
        <time>2026-09-12T07:20:12.000Z</time>
      </trkpt>
      <trkpt lat="41.281628" lon="-72.605582">
        <ele>9.168402</ele>
        <time>2026-09-12T07:20:16.000Z</time>
      </trkpt>
      <trkpt lat="41.281708" lon="-72.60573">
        <ele>9.19211</ele>
        <time>2026-09-12T07:20:18.000Z</time>
      </trkpt>
      <trkpt lat="41.282129" lon="-72.606527">
        <ele>9.328951</ele>
        <time>2026-09-12T07:20:26.000Z</time>
      </trkpt>
      <trkpt lat="41.282165" lon="-72.606602">
        <ele>9.339432</ele>
        <time>2026-09-12T07:20:27.000Z</time>
      </trkpt>
      <trkpt lat="41.282283" lon="-72.606847">
        <ele>9.380396</ele>
        <time>2026-09-12T07:20:29.000Z</time>
      </trkpt>
      <trkpt lat="41.282371" lon="-72.60675">
        <ele>9.40086</ele>
        <time>2026-09-12T07:20:30.000Z</time>
      </trkpt>
      <trkpt lat="41.282418" lon="-72.606743">
        <ele>9.41085</ele>
        <time>2026-09-12T07:20:31.000Z</time>
      </trkpt>
      <trkpt lat="41.282469" lon="-72.606765">
        <ele>9.419665</ele>
        <time>2026-09-12T07:20:32.000Z</time>
      </trkpt>
      <trkpt lat="41.283564" lon="-72.607563">
        <ele>8.919277</ele>
        <time>2026-09-12T07:20:46.000Z</time>
      </trkpt>
      <trkpt lat="41.283666" lon="-72.607619">
        <ele>8.838043</ele>
        <time>2026-09-12T07:20:47.000Z</time>
      </trkpt>
      <trkpt lat="41.283759" lon="-72.607623">
        <ele>8.771824</ele>
        <time>2026-09-12T07:20:48.000Z</time>
      </trkpt>
      <trkpt lat="41.283883" lon="-72.607637">
        <ele>8.692699</ele>
        <time>2026-09-12T07:20:49.000Z</time>
      </trkpt>
      <trkpt lat="41.283973" lon="-72.607628">
        <ele>8.630652</ele>
        <time>2026-09-12T07:20:50.000Z</time>
      </trkpt>
      <trkpt lat="41.284239" lon="-72.608271">
        <ele>8.246036</ele>
        <time>2026-09-12T07:20:56.000Z</time>
      </trkpt>
      <trkpt lat="41.28507" lon="-72.610292">
        <ele>6.122934</ele>
        <time>2026-09-12T07:21:15.000Z</time>
      </trkpt>
      <trkpt lat="41.285506" lon="-72.611422">
        <ele>6.191713</ele>
        <time>2026-09-12T07:21:26.000Z</time>
      </trkpt>
      <trkpt lat="41.285631" lon="-72.611679">
        <ele>6.229771</ele>
        <time>2026-09-12T07:21:29.000Z</time>
      </trkpt>
      <trkpt lat="41.285696" lon="-72.611791">
        <ele>6.247196</ele>
        <time>2026-09-12T07:21:30.000Z</time>
      </trkpt>
      <trkpt lat="41.285948" lon="-72.611955">
        <ele>6.295426</ele>
        <time>2026-09-12T07:21:33.000Z</time>
      </trkpt>
      <trkpt lat="41.286281" lon="-72.612096">
        <ele>6.389616</ele>
        <time>2026-09-12T07:21:37.000Z</time>
      </trkpt>
      <trkpt lat="41.286754" lon="-72.612229">
        <ele>6.713206</ele>
        <time>2026-09-12T07:21:42.000Z</time>
      </trkpt>
      <trkpt lat="41.287123" lon="-72.61226">
        <ele>6.962764</ele>
        <time>2026-09-12T07:21:46.000Z</time>
      </trkpt>
      <trkpt lat="41.287475" lon="-72.612232">
        <ele>7.200061</ele>
        <time>2026-09-12T07:21:50.000Z</time>
      </trkpt>
      <trkpt lat="41.287771" lon="-72.61217">
        <ele>7.405001</ele>
        <time>2026-09-12T07:21:53.000Z</time>
      </trkpt>
      <trkpt lat="41.288132" lon="-72.611971">
        <ele>7.59296</ele>
        <time>2026-09-12T07:21:57.000Z</time>
      </trkpt>
      <trkpt lat="41.288477" lon="-72.611779">
        <ele>7.659622</ele>
        <time>2026-09-12T07:22:01.000Z</time>
      </trkpt>
      <trkpt lat="41.288804" lon="-72.611748">
        <ele>7.719177</ele>
        <time>2026-09-12T07:22:05.000Z</time>
      </trkpt>
      <trkpt lat="41.289287" lon="-72.611701">
        <ele>7.810078</ele>
        <time>2026-09-12T07:22:10.000Z</time>
      </trkpt>
      <trkpt lat="41.289623" lon="-72.611678">
        <ele>7.870993</ele>
        <time>2026-09-12T07:22:14.000Z</time>
      </trkpt>
      <trkpt lat="41.289945" lon="-72.611598">
        <ele>8.037064</ele>
        <time>2026-09-12T07:22:18.000Z</time>
      </trkpt>
      <trkpt lat="41.290565" lon="-72.611304">
        <ele>8.48578</ele>
        <time>2026-09-12T07:22:25.000Z</time>
      </trkpt>
      <trkpt lat="41.291017" lon="-72.611084">
        <ele>8.810127</ele>
        <time>2026-09-12T07:22:30.000Z</time>
      </trkpt>
      <trkpt lat="41.29184" lon="-72.610902">
        <ele>9.193724</ele>
        <time>2026-09-12T07:22:39.000Z</time>
      </trkpt>
      <trkpt lat="41.291984" lon="-72.610911">
        <ele>9.223784</ele>
        <time>2026-09-12T07:22:41.000Z</time>
      </trkpt>
      <trkpt lat="41.29229" lon="-72.610899">
        <ele>9.282731</ele>
        <time>2026-09-12T07:22:44.000Z</time>
      </trkpt>
      <trkpt lat="41.29251" lon="-72.610932">
        <ele>9.328234</ele>
        <time>2026-09-12T07:22:46.000Z</time>
      </trkpt>
      <trkpt lat="41.292779" lon="-72.611038">
        <ele>9.384911</ele>
        <time>2026-09-12T07:22:49.000Z</time>
      </trkpt>
      <trkpt lat="41.293828" lon="-72.61144">
        <ele>9.03138</ele>
        <time>2026-09-12T07:23:01.000Z</time>
      </trkpt>
      <trkpt lat="41.294143" lon="-72.611604">
        <ele>8.797502</ele>
        <time>2026-09-12T07:23:05.000Z</time>
      </trkpt>
      <trkpt lat="41.294269" lon="-72.611707">
        <ele>8.696443</ele>
        <time>2026-09-12T07:23:07.000Z</time>
      </trkpt>
      <trkpt lat="41.29446" lon="-72.611837">
        <ele>8.545276</ele>
        <time>2026-09-12T07:23:09.000Z</time>
      </trkpt>
      <trkpt lat="41.295012" lon="-72.612369">
        <ele>8.416677</ele>
        <time>2026-09-12T07:23:17.000Z</time>
      </trkpt>
      <trkpt lat="41.295308" lon="-72.612637">
        <ele>8.741391</ele>
        <time>2026-09-12T07:23:21.000Z</time>
      </trkpt>
      <trkpt lat="41.295476" lon="-72.61288">
        <ele>8.969531</ele>
        <time>2026-09-12T07:23:24.000Z</time>
      </trkpt>
      <trkpt lat="41.2956" lon="-72.613273">
        <ele>9.272625</ele>
        <time>2026-09-12T07:23:28.000Z</time>
      </trkpt>
      <trkpt lat="41.295654" lon="-72.613565">
        <ele>9.476386</ele>
        <time>2026-09-12T07:23:31.000Z</time>
      </trkpt>
      <trkpt lat="41.295643" lon="-72.614625">
        <ele>10.90001</ele>
        <time>2026-09-12T07:23:40.000Z</time>
      </trkpt>
      <trkpt lat="41.295684" lon="-72.614826">
        <ele>11.373311</ele>
        <time>2026-09-12T07:23:42.000Z</time>
      </trkpt>
      <trkpt lat="41.295787" lon="-72.61513">
        <ele>12.067184</ele>
        <time>2026-09-12T07:23:45.000Z</time>
      </trkpt>
      <trkpt lat="41.295899" lon="-72.615304">
        <ele>12.575224</ele>
        <time>2026-09-12T07:23:47.000Z</time>
      </trkpt>
      <trkpt lat="41.296011" lon="-72.615498">
        <ele>13.108284</ele>
        <time>2026-09-12T07:23:49.000Z</time>
      </trkpt>
      <trkpt lat="41.296258" lon="-72.615753">
        <ele>13.97111</ele>
        <time>2026-09-12T07:23:52.000Z</time>
      </trkpt>
      <trkpt lat="41.297103" lon="-72.616475">
        <ele>16.261064</ele>
        <time>2026-09-12T07:24:03.000Z</time>
      </trkpt>
      <trkpt lat="41.297375" lon="-72.616629">
        <ele>16.804916</ele>
        <time>2026-09-12T07:24:06.000Z</time>
      </trkpt>
      <trkpt lat="41.297785" lon="-72.616738">
        <ele>17.615759</ele>
        <time>2026-09-12T07:24:11.000Z</time>
      </trkpt>
      <trkpt lat="41.298041" lon="-72.616841">
        <ele>18.101573</ele>
        <time>2026-09-12T07:24:14.000Z</time>
      </trkpt>
      <trkpt lat="41.298502" lon="-72.61705">
        <ele>18.232306</ele>
        <time>2026-09-12T07:24:19.000Z</time>
      </trkpt>
      <trkpt lat="41.300026" lon="-72.617931">
        <ele>17.113923</ele>
        <time>2026-09-12T07:24:37.000Z</time>
      </trkpt>
      <trkpt lat="41.300764" lon="-72.618537">
        <ele>16.371417</ele>
        <time>2026-09-12T07:24:47.000Z</time>
      </trkpt>
      <trkpt lat="41.301587" lon="-72.619207">
        <ele>16.284295</ele>
        <time>2026-09-12T07:24:58.000Z</time>
      </trkpt>
      <trkpt lat="41.301911" lon="-72.619443">
        <ele>17.23931</ele>
        <time>2026-09-12T07:25:02.000Z</time>
      </trkpt>
      <trkpt lat="41.302247" lon="-72.619499">
        <ele>18.142961</ele>
        <time>2026-09-12T07:25:06.000Z</time>
      </trkpt>
      <trkpt lat="41.302451" lon="-72.619495">
        <ele>18.708548</ele>
        <time>2026-09-12T07:25:08.000Z</time>
      </trkpt>
      <trkpt lat="41.30265" lon="-72.619477">
        <ele>19.216649</ele>
        <time>2026-09-12T07:25:10.000Z</time>
      </trkpt>
      <trkpt lat="41.303801" lon="-72.619402">
        <ele>23.866774</ele>
        <time>2026-09-12T07:25:23.000Z</time>
      </trkpt>
      <trkpt lat="41.304297" lon="-72.619546">
        <ele>26.478592</ele>
        <time>2026-09-12T07:25:29.000Z</time>
      </trkpt>
      <trkpt lat="41.304638" lon="-72.619686">
        <ele>28.261137</ele>
        <time>2026-09-12T07:25:33.000Z</time>
      </trkpt>
      <trkpt lat="41.305423" lon="-72.620053">
        <ele>31.533156</ele>
        <time>2026-09-12T07:25:42.000Z</time>
      </trkpt>
      <trkpt lat="41.306351" lon="-72.620502">
        <ele>34.872939</ele>
        <time>2026-09-12T07:25:53.000Z</time>
      </trkpt>
      <trkpt lat="41.307308" lon="-72.620942">
        <ele>37.252283</ele>
        <time>2026-09-12T07:26:04.000Z</time>
      </trkpt>
      <trkpt lat="41.307444" lon="-72.621012">
        <ele>37.590674</ele>
        <time>2026-09-12T07:26:06.000Z</time>
      </trkpt>
      <trkpt lat="41.308199" lon="-72.621344">
        <ele>39.222295</ele>
        <time>2026-09-12T07:26:15.000Z</time>
      </trkpt>
      <trkpt lat="41.30854" lon="-72.621428">
        <ele>40.059183</ele>
        <time>2026-09-12T07:26:19.000Z</time>
      </trkpt>
      <trkpt lat="41.310135" lon="-72.621514">
        <ele>44.112859</ele>
        <time>2026-09-12T07:26:37.000Z</time>
      </trkpt>
      <trkpt lat="41.310324" lon="-72.621556">
        <ele>44.550541</ele>
        <time>2026-09-12T07:26:39.000Z</time>
      </trkpt>
      <trkpt lat="41.310862" lon="-72.621763">
        <ele>45.725736</ele>
        <time>2026-09-12T07:26:45.000Z</time>
      </trkpt>
      <trkpt lat="41.311126" lon="-72.621855">
        <ele>46.312407</ele>
        <time>2026-09-12T07:26:48.000Z</time>
      </trkpt>
      <trkpt lat="41.311271" lon="-72.621935">
        <ele>46.665961</ele>
        <time>2026-09-12T07:26:50.000Z</time>
      </trkpt>
      <trkpt lat="41.311882" lon="-72.62218">
        <ele>47.787059</ele>
        <time>2026-09-12T07:26:57.000Z</time>
      </trkpt>
      <trkpt lat="41.311907" lon="-72.62219">
        <ele>47.761467</ele>
        <time>2026-09-12T07:26:57.000Z</time>
      </trkpt>
      <trkpt lat="41.313049" lon="-72.622531">
        <ele>46.888462</ele>
        <time>2026-09-12T07:27:10.000Z</time>
      </trkpt>
      <trkpt lat="41.313158" lon="-72.622562">
        <ele>46.800747</ele>
        <time>2026-09-12T07:27:11.000Z</time>
      </trkpt>
      <trkpt lat="41.313526" lon="-72.622643">
        <ele>46.521664</ele>
        <time>2026-09-12T07:27:15.000Z</time>
      </trkpt>
      <trkpt lat="41.313987" lon="-72.622747">
        <ele>46.867519</ele>
        <time>2026-09-12T07:27:20.000Z</time>
      </trkpt>
      <trkpt lat="41.315307" lon="-72.623006">
        <ele>48.024883</ele>
        <time>2026-09-12T07:27:35.000Z</time>
      </trkpt>
      <trkpt lat="41.315591" lon="-72.623075">
        <ele>48.59111</ele>
        <time>2026-09-12T07:27:38.000Z</time>
      </trkpt>
      <trkpt lat="41.315911" lon="-72.623153">
        <ele>49.307706</ele>
        <time>2026-09-12T07:27:42.000Z</time>
      </trkpt>
      <trkpt lat="41.316327" lon="-72.623195">
        <ele>50.164169</ele>
        <time>2026-09-12T07:27:47.000Z</time>
      </trkpt>
      <trkpt lat="41.317184" lon="-72.623176">
        <ele>51.889387</ele>
        <time>2026-09-12T07:27:57.000Z</time>
      </trkpt>
      <trkpt lat="41.317594" lon="-72.623181">
        <ele>52.088961</ele>
        <time>2026-09-12T07:28:02.000Z</time>
      </trkpt>
      <trkpt lat="41.318177" lon="-72.623203">
        <ele>52.362077</ele>
        <time>2026-09-12T07:28:08.000Z</time>
      </trkpt>
      <trkpt lat="41.318444" lon="-72.623242">
        <ele>52.491657</ele>
        <time>2026-09-12T07:28:11.000Z</time>
      </trkpt>
      <trkpt lat="41.319101" lon="-72.623582">
        <ele>52.854798</ele>
        <time>2026-09-12T07:28:19.000Z</time>
      </trkpt>
      <trkpt lat="41.320123" lon="-72.624144">
        <ele>53.551718</ele>
        <time>2026-09-12T07:28:31.000Z</time>
      </trkpt>
      <trkpt lat="41.320263" lon="-72.62419">
        <ele>53.639378</ele>
        <time>2026-09-12T07:28:33.000Z</time>
      </trkpt>
      <trkpt lat="41.320433" lon="-72.624214">
        <ele>53.753252</ele>
        <time>2026-09-12T07:28:35.000Z</time>
      </trkpt>
      <trkpt lat="41.320624" lon="-72.624165">
        <ele>53.849317</ele>
        <time>2026-09-12T07:28:37.000Z</time>
      </trkpt>
      <trkpt lat="41.320777" lon="-72.624097">
        <ele>53.866262</ele>
        <time>2026-09-12T07:28:39.000Z</time>
      </trkpt>
      <trkpt lat="41.32095" lon="-72.623975">
        <ele>53.887037</ele>
        <time>2026-09-12T07:28:41.000Z</time>
      </trkpt>
      <trkpt lat="41.321508" lon="-72.623662">
        <ele>53.947936</ele>
        <time>2026-09-12T07:28:48.000Z</time>
      </trkpt>
      <trkpt lat="41.321691" lon="-72.623477">
        <ele>53.970983</ele>
        <time>2026-09-12T07:28:51.000Z</time>
      </trkpt>
      <trkpt lat="41.321771" lon="-72.623337">
        <ele>53.985432</ele>
        <time>2026-09-12T07:28:52.000Z</time>
      </trkpt>
      <trkpt lat="41.322045" lon="-72.622754">
        <ele>53.928191</ele>
        <time>2026-09-12T07:28:58.000Z</time>
      </trkpt>
      <trkpt lat="41.322203" lon="-72.622551">
        <ele>53.660779</ele>
        <time>2026-09-12T07:29:00.000Z</time>
      </trkpt>
      <trkpt lat="41.322352" lon="-72.62245">
        <ele>53.457502</ele>
        <time>2026-09-12T07:29:02.000Z</time>
      </trkpt>
      <trkpt lat="41.322791" lon="-72.622313">
        <ele>52.909629</ele>
        <time>2026-09-12T07:29:07.000Z</time>
      </trkpt>
      <trkpt lat="41.323016" lon="-72.622153">
        <ele>52.612692</ele>
        <time>2026-09-12T07:29:10.000Z</time>
      </trkpt>
      <trkpt lat="41.323203" lon="-72.621827">
        <ele>52.248834</ele>
        <time>2026-09-12T07:29:13.000Z</time>
      </trkpt>
      <trkpt lat="41.323668" lon="-72.622091">
        <ele>51.52451</ele>
        <time>2026-09-12T07:29:19.000Z</time>
      </trkpt>
      <trkpt lat="41.324154" lon="-72.622558">
        <ele>50.429036</ele>
        <time>2026-09-12T07:29:26.000Z</time>
      </trkpt>
      <trkpt lat="41.324353" lon="-72.622746">
        <ele>50.015777</ele>
        <time>2026-09-12T07:29:29.000Z</time>
      </trkpt>
      <trkpt lat="41.324884" lon="-72.623284">
        <ele>48.818919</ele>
        <time>2026-09-12T07:29:36.000Z</time>
      </trkpt>
      <trkpt lat="41.325132" lon="-72.623559">
        <ele>48.286063</ele>
        <time>2026-09-12T07:29:40.000Z</time>
      </trkpt>
      <trkpt lat="41.326175" lon="-72.624663">
        <ele>46.226896</ele>
        <time>2026-09-12T07:29:55.000Z</time>
      </trkpt>
      <trkpt lat="41.326772" lon="-72.625499">
        <ele>45.952579</ele>
        <time>2026-09-12T07:30:05.000Z</time>
      </trkpt>
      <trkpt lat="41.326963" lon="-72.625684">
        <ele>45.986108</ele>
        <time>2026-09-12T07:30:08.000Z</time>
      </trkpt>
      <trkpt lat="41.327131" lon="-72.625795">
        <ele>46.011981</ele>
        <time>2026-09-12T07:30:10.000Z</time>
      </trkpt>
      <trkpt lat="41.327587" lon="-72.62597">
        <ele>46.080078</ele>
        <time>2026-09-12T07:30:15.000Z</time>
      </trkpt>
      <trkpt lat="41.327957" lon="-72.626088">
        <ele>46.481336</ele>
        <time>2026-09-12T07:30:19.000Z</time>
      </trkpt>
      <trkpt lat="41.328264" lon="-72.626179">
        <ele>47.640388</ele>
        <time>2026-09-12T07:30:22.000Z</time>
      </trkpt>
      <trkpt lat="41.328547" lon="-72.626336">
        <ele>48.792371</ele>
        <time>2026-09-12T07:30:25.000Z</time>
      </trkpt>
      <trkpt lat="41.328678" lon="-72.626412">
        <ele>49.31864</ele>
        <time>2026-09-12T07:30:27.000Z</time>
      </trkpt>
      <trkpt lat="41.328857" lon="-72.626622">
        <ele>50.166287</ele>
        <time>2026-09-12T07:30:30.000Z</time>
      </trkpt>
      <trkpt lat="41.329814" lon="-72.627711">
        <ele>55.115664</ele>
        <time>2026-09-12T07:30:44.000Z</time>
      </trkpt>
      <trkpt lat="41.330168" lon="-72.628116">
        <ele>57.043207</ele>
        <time>2026-09-12T07:30:49.000Z</time>
      </trkpt>
      <trkpt lat="41.3314" lon="-72.629518">
        <ele>64.574555</ele>
        <time>2026-09-12T07:31:07.000Z</time>
      </trkpt>
      <trkpt lat="41.331793" lon="-72.62992">
        <ele>67.055449</ele>
        <time>2026-09-12T07:31:13.000Z</time>
      </trkpt>
      <trkpt lat="41.333101" lon="-72.631222">
        <ele>75.63144</ele>
        <time>2026-09-12T07:31:31.000Z</time>
      </trkpt>
      <trkpt lat="41.333614" lon="-72.631739">
        <ele>79.041569</ele>
        <time>2026-09-12T07:31:38.000Z</time>
      </trkpt>
      <trkpt lat="41.333948" lon="-72.632069">
        <ele>80.480804</ele>
        <time>2026-09-12T07:31:43.000Z</time>
      </trkpt>
      <trkpt lat="41.334076" lon="-72.632194">
        <ele>81.008867</ele>
        <time>2026-09-12T07:31:45.000Z</time>
      </trkpt>
      <trkpt lat="41.334236" lon="-72.632357">
        <ele>81.754607</ele>
        <time>2026-09-12T07:31:47.000Z</time>
      </trkpt>
      <trkpt lat="41.334814" lon="-72.632936">
        <ele>84.241877</ele>
        <time>2026-09-12T07:31:55.000Z</time>
      </trkpt>
      <trkpt lat="41.33499" lon="-72.633143">
        <ele>85.037212</ele>
        <time>2026-09-12T07:31:58.000Z</time>
      </trkpt>
      <trkpt lat="41.335063" lon="-72.63327">
        <ele>85.156242</ele>
        <time>2026-09-12T07:31:59.000Z</time>
      </trkpt>
      <trkpt lat="41.335133" lon="-72.633559">
        <ele>85.092854</ele>
        <time>2026-09-12T07:32:02.000Z</time>
      </trkpt>
      <trkpt lat="41.335252" lon="-72.634298">
        <ele>84.940056</ele>
        <time>2026-09-12T07:32:08.000Z</time>
      </trkpt>
      <trkpt lat="41.335357" lon="-72.634632">
        <ele>84.866043</ele>
        <time>2026-09-12T07:32:11.000Z</time>
      </trkpt>
      <trkpt lat="41.335586" lon="-72.635285">
        <ele>84.718152</ele>
        <time>2026-09-12T07:32:17.000Z</time>
      </trkpt>
      <trkpt lat="41.335587" lon="-72.635424">
        <ele>84.691676</ele>
        <time>2026-09-12T07:32:18.000Z</time>
      </trkpt>
      <trkpt lat="41.335531" lon="-72.635412">
        <ele>84.637655</ele>
        <time>2026-09-12T07:32:19.000Z</time>
      </trkpt>
      <trkpt lat="41.334174" lon="-72.634847">
        <ele>82.796328</ele>
        <time>2026-09-12T07:32:35.000Z</time>
      </trkpt>
      <trkpt lat="41.333934" lon="-72.634787">
        <ele>82.467272</ele>
        <time>2026-09-12T07:32:38.000Z</time>
      </trkpt>
      <trkpt lat="41.333356" lon="-72.634613">
        <ele>81.61139</ele>
        <time>2026-09-12T07:32:45.000Z</time>
      </trkpt>
      <trkpt lat="41.33299" lon="-72.634511">
        <ele>81.079798</ele>
        <time>2026-09-12T07:32:49.000Z</time>
      </trkpt>
      <trkpt lat="41.331586" lon="-72.634188">
        <ele>77.963997</ele>
        <time>2026-09-12T07:33:05.000Z</time>
      </trkpt>
      <trkpt lat="41.330281" lon="-72.633958">
        <ele>73.370437</ele>
        <time>2026-09-12T07:33:20.000Z</time>
      </trkpt>
      <trkpt lat="41.329794" lon="-72.633858">
        <ele>70.380868</ele>
        <time>2026-09-12T07:33:25.000Z</time>
      </trkpt>
      <trkpt lat="41.329455" lon="-72.633801">
        <ele>68.299928</ele>
        <time>2026-09-12T07:33:29.000Z</time>
      </trkpt>
      <trkpt lat="41.329268" lon="-72.633788">
        <ele>67.14566</ele>
        <time>2026-09-12T07:33:31.000Z</time>
      </trkpt>
      <trkpt lat="41.328935" lon="-72.633871">
        <ele>65.12756</ele>
        <time>2026-09-12T07:33:35.000Z</time>
      </trkpt>
      <trkpt lat="41.328644" lon="-72.634066">
        <ele>63.210692</ele>
        <time>2026-09-12T07:33:39.000Z</time>
      </trkpt>
      <trkpt lat="41.328445" lon="-72.634247">
        <ele>61.940099</ele>
        <time>2026-09-12T07:33:42.000Z</time>
      </trkpt>
      <trkpt lat="41.32782" lon="-72.635005">
        <ele>57.661233</ele>
        <time>2026-09-12T07:33:51.000Z</time>
      </trkpt>
      <trkpt lat="41.327655" lon="-72.635174">
        <ele>56.580358</ele>
        <time>2026-09-12T07:33:53.000Z</time>
      </trkpt>
      <trkpt lat="41.327404" lon="-72.63533">
        <ele>55.245859</ele>
        <time>2026-09-12T07:33:56.000Z</time>
      </trkpt>
      <trkpt lat="41.326998" lon="-72.635464">
        <ele>53.68577</ele>
        <time>2026-09-12T07:34:01.000Z</time>
      </trkpt>
      <trkpt lat="41.3268" lon="-72.635499">
        <ele>53.770388</ele>
        <time>2026-09-12T07:34:03.000Z</time>
      </trkpt>
      <trkpt lat="41.326492" lon="-72.63545">
        <ele>53.889281</ele>
        <time>2026-09-12T07:34:06.000Z</time>
      </trkpt>
      <trkpt lat="41.326404" lon="-72.635414">
        <ele>53.926673</ele>
        <time>2026-09-12T07:34:07.000Z</time>
      </trkpt>
      <trkpt lat="41.326317" lon="-72.63536">
        <ele>53.966017</ele>
        <time>2026-09-12T07:34:08.000Z</time>
      </trkpt>
      <trkpt lat="41.325854" lon="-72.635061">
        <ele>54.170613</ele>
        <time>2026-09-12T07:34:14.000Z</time>
      </trkpt>
      <trkpt lat="41.325645" lon="-72.634931">
        <ele>54.263422</ele>
        <time>2026-09-12T07:34:17.000Z</time>
      </trkpt>
      <trkpt lat="41.325494" lon="-72.634817">
        <ele>54.33612</ele>
        <time>2026-09-12T07:34:19.000Z</time>
      </trkpt>
      <trkpt lat="41.324368" lon="-72.634086">
        <ele>54.27297</ele>
        <time>2026-09-12T07:34:33.000Z</time>
      </trkpt>
      <trkpt lat="41.322083" lon="-72.632566">
        <ele>53.167645</ele>
        <time>2026-09-12T07:35:01.000Z</time>
      </trkpt>
      <trkpt lat="41.321768" lon="-72.632386">
        <ele>52.329054</ele>
        <time>2026-09-12T07:35:05.000Z</time>
      </trkpt>
      <trkpt lat="41.321548" lon="-72.632357">
        <ele>51.808784</ele>
        <time>2026-09-12T07:35:07.000Z</time>
      </trkpt>
      <trkpt lat="41.321306" lon="-72.632384">
        <ele>51.272919</ele>
        <time>2026-09-12T07:35:10.000Z</time>
      </trkpt>
      <trkpt lat="41.321299" lon="-72.631155">
        <ele>49.155671</ele>
        <time>2026-09-12T07:35:20.000Z</time>
      </trkpt>
      <trkpt lat="41.321389" lon="-72.630844">
        <ele>48.85447</ele>
        <time>2026-09-12T07:35:23.000Z</time>
      </trkpt>
      <trkpt lat="41.321558" lon="-72.630583">
        <ele>48.521297</ele>
        <time>2026-09-12T07:35:26.000Z</time>
      </trkpt>
      <trkpt lat="41.321648" lon="-72.630374">
        <ele>48.296341</ele>
        <time>2026-09-12T07:35:28.000Z</time>
      </trkpt>
      <trkpt lat="41.321675" lon="-72.630134">
        <ele>48.073739</ele>
        <time>2026-09-12T07:35:30.000Z</time>
      </trkpt>
      <trkpt lat="41.321691" lon="-72.62957">
        <ele>47.538096</ele>
        <time>2026-09-12T07:35:35.000Z</time>
      </trkpt>
      <trkpt lat="41.321726" lon="-72.629364">
        <ele>47.338296</ele>
        <time>2026-09-12T07:35:37.000Z</time>
      </trkpt>
      <trkpt lat="41.3218" lon="-72.629087">
        <ele>47.06257</ele>
        <time>2026-09-12T07:35:39.000Z</time>
      </trkpt>
      <trkpt lat="41.322013" lon="-72.62849">
        <ele>47.646362</ele>
        <time>2026-09-12T07:35:45.000Z</time>
      </trkpt>
      <trkpt lat="41.322045" lon="-72.628429">
        <ele>47.731742</ele>
        <time>2026-09-12T07:35:46.000Z</time>
      </trkpt>
      <trkpt lat="41.32214" lon="-72.628288">
        <ele>47.949515</ele>
        <time>2026-09-12T07:35:48.000Z</time>
      </trkpt>
      <trkpt lat="41.322481" lon="-72.628018">
        <ele>48.535865</ele>
        <time>2026-09-12T07:35:52.000Z</time>
      </trkpt>
      <trkpt lat="41.322584" lon="-72.62785">
        <ele>48.774947</ele>
        <time>2026-09-12T07:35:54.000Z</time>
      </trkpt>
      <trkpt lat="41.322649" lon="-72.62771">
        <ele>48.967595</ele>
        <time>2026-09-12T07:35:55.000Z</time>
      </trkpt>
      <trkpt lat="41.322696" lon="-72.626932">
        <ele>49.962979</ele>
        <time>2026-09-12T07:36:02.000Z</time>
      </trkpt>
      <trkpt lat="41.322698" lon="-72.626536">
        <ele>50.73199</ele>
        <time>2026-09-12T07:36:05.000Z</time>
      </trkpt>
      <trkpt lat="41.32265" lon="-72.626373">
        <ele>51.061278</ele>
        <time>2026-09-12T07:36:06.000Z</time>
      </trkpt>
      <trkpt lat="41.322219" lon="-72.62555">
        <ele>53.006228</ele>
        <time>2026-09-12T07:36:14.000Z</time>
      </trkpt>
      <trkpt lat="41.322099" lon="-72.625245">
        <ele>53.653881</ele>
        <time>2026-09-12T07:36:17.000Z</time>
      </trkpt>
      <trkpt lat="41.32205" lon="-72.625043">
        <ele>54.096412</ele>
        <time>2026-09-12T07:36:19.000Z</time>
      </trkpt>
      <trkpt lat="41.321847" lon="-72.623817">
        <ele>54.280914</ele>
        <time>2026-09-12T07:36:29.000Z</time>
      </trkpt>
      <trkpt lat="41.32179" lon="-72.623639">
        <ele>54.272171</ele>
        <time>2026-09-12T07:36:31.000Z</time>
      </trkpt>
      <trkpt lat="41.321694" lon="-72.623492">
        <ele>54.262067</ele>
        <time>2026-09-12T07:36:33.000Z</time>
      </trkpt>
      <trkpt lat="41.321494" lon="-72.623654">
        <ele>54.247584</ele>
        <time>2026-09-12T07:36:36.000Z</time>
      </trkpt>
      <trkpt lat="41.320955" lon="-72.623962">
        <ele>54.111718</ele>
        <time>2026-09-12T07:36:43.000Z</time>
      </trkpt>
      <trkpt lat="41.320786" lon="-72.624108">
        <ele>53.977161</ele>
        <time>2026-09-12T07:36:45.000Z</time>
      </trkpt>
      <trkpt lat="41.32063" lon="-72.624181">
        <ele>53.867436</ele>
        <time>2026-09-12T07:36:47.000Z</time>
      </trkpt>
      <trkpt lat="41.320434" lon="-72.624215">
        <ele>53.744301</ele>
        <time>2026-09-12T07:36:49.000Z</time>
      </trkpt>
      <trkpt lat="41.320261" lon="-72.624186">
        <ele>53.623958</ele>
        <time>2026-09-12T07:36:51.000Z</time>
      </trkpt>
      <trkpt lat="41.320126" lon="-72.624143">
        <ele>53.531318</ele>
        <time>2026-09-12T07:36:53.000Z</time>
      </trkpt>
      <trkpt lat="41.3191" lon="-72.62359">
        <ele>52.887346</ele>
        <time>2026-09-12T07:37:05.000Z</time>
      </trkpt>
      <trkpt lat="41.318447" lon="-72.623249">
        <ele>52.609742</ele>
        <time>2026-09-12T07:37:13.000Z</time>
      </trkpt>
      <trkpt lat="41.318168" lon="-72.623203">
        <ele>52.500568</ele>
        <time>2026-09-12T07:37:16.000Z</time>
      </trkpt>
      <trkpt lat="41.317591" lon="-72.623182">
        <ele>52.154157</ele>
        <time>2026-09-12T07:37:22.000Z</time>
      </trkpt>
      <trkpt lat="41.317178" lon="-72.623189">
        <ele>51.483612</ele>
        <time>2026-09-12T07:37:27.000Z</time>
      </trkpt>
      <trkpt lat="41.316323" lon="-72.623183">
        <ele>50.120176</ele>
        <time>2026-09-12T07:37:37.000Z</time>
      </trkpt>
      <trkpt lat="41.315915" lon="-72.623148">
        <ele>49.47527</ele>
        <time>2026-09-12T07:37:42.000Z</time>
      </trkpt>
      <trkpt lat="41.315585" lon="-72.623082">
        <ele>48.885935</ele>
        <time>2026-09-12T07:37:46.000Z</time>
      </trkpt>
      <trkpt lat="41.315295" lon="-72.623018">
        <ele>48.376276</ele>
        <time>2026-09-12T07:37:49.000Z</time>
      </trkpt>
      <trkpt lat="41.313995" lon="-72.622744">
        <ele>46.42212</ele>
        <time>2026-09-12T07:38:04.000Z</time>
      </trkpt>
      <trkpt lat="41.313525" lon="-72.622641">
        <ele>46.833858</ele>
        <time>2026-09-12T07:38:09.000Z</time>
      </trkpt>
      <trkpt lat="41.313155" lon="-72.622565">
        <ele>47.158459</ele>
        <time>2026-09-12T07:38:13.000Z</time>
      </trkpt>
      <trkpt lat="41.313036" lon="-72.622524">
        <ele>47.260465</ele>
        <time>2026-09-12T07:38:14.000Z</time>
      </trkpt>
      <trkpt lat="41.311903" lon="-72.622178">
        <ele>47.282455</ele>
        <time>2026-09-12T07:38:27.000Z</time>
      </trkpt>
      <trkpt lat="41.311877" lon="-72.622176">
        <ele>47.238822</ele>
        <time>2026-09-12T07:38:27.000Z</time>
      </trkpt>
      <trkpt lat="41.311275" lon="-72.621926">
        <ele>46.435531</ele>
        <time>2026-09-12T07:38:34.000Z</time>
      </trkpt>
      <trkpt lat="41.311115" lon="-72.62187">
        <ele>46.22375</ele>
        <time>2026-09-12T07:38:36.000Z</time>
      </trkpt>
      <trkpt lat="41.310861" lon="-72.621751">
        <ele>45.872318</ele>
        <time>2026-09-12T07:38:39.000Z</time>
      </trkpt>
      <trkpt lat="41.310325" lon="-72.621566">
        <ele>44.726646</ele>
        <time>2026-09-12T07:38:45.000Z</time>
      </trkpt>
      <trkpt lat="41.310123" lon="-72.621511">
        <ele>44.173618</ele>
        <time>2026-09-12T07:38:47.000Z</time>
      </trkpt>
      <trkpt lat="41.308532" lon="-72.621442">
        <ele>40.057144</ele>
        <time>2026-09-12T07:39:05.000Z</time>
      </trkpt>
      <trkpt lat="41.308206" lon="-72.621339">
        <ele>39.342681</ele>
        <time>2026-09-12T07:39:09.000Z</time>
      </trkpt>
      <trkpt lat="41.307453" lon="-72.621019">
        <ele>37.696715</ele>
        <time>2026-09-12T07:39:18.000Z</time>
      </trkpt>
      <trkpt lat="41.307299" lon="-72.62094">
        <ele>37.355343</ele>
        <time>2026-09-12T07:39:20.000Z</time>
      </trkpt>
      <trkpt lat="41.306357" lon="-72.62049">
        <ele>34.698454</ele>
        <time>2026-09-12T07:39:31.000Z</time>
      </trkpt>
      <trkpt lat="41.305413" lon="-72.620049">
        <ele>31.933745</ele>
        <time>2026-09-12T07:39:42.000Z</time>
      </trkpt>
      <trkpt lat="41.304625" lon="-72.619681">
        <ele>28.000739</ele>
        <time>2026-09-12T07:39:51.000Z</time>
      </trkpt>
      <trkpt lat="41.304299" lon="-72.61953">
        <ele>26.348792</ele>
        <time>2026-09-12T07:39:55.000Z</time>
      </trkpt>
      <trkpt lat="41.303791" lon="-72.619404">
        <ele>23.928329</ele>
        <time>2026-09-12T07:40:01.000Z</time>
      </trkpt>
      <trkpt lat="41.302656" lon="-72.619483">
        <ele>19.224625</ele>
        <time>2026-09-12T07:40:14.000Z</time>
      </trkpt>
      <trkpt lat="41.302459" lon="-72.619502">
        <ele>18.445703</ele>
        <time>2026-09-12T07:40:16.000Z</time>
      </trkpt>
      <trkpt lat="41.302251" lon="-72.619506">
        <ele>17.578644</ele>
        <time>2026-09-12T07:40:18.000Z</time>
      </trkpt>
      <trkpt lat="41.301904" lon="-72.619445">
        <ele>16.193364</ele>
        <time>2026-09-12T07:40:22.000Z</time>
      </trkpt>
      <trkpt lat="41.301581" lon="-72.619217">
        <ele>16.270381</ele>
        <time>2026-09-12T07:40:26.000Z</time>
      </trkpt>
      <trkpt lat="41.300769" lon="-72.618549">
        <ele>16.502072</ele>
        <time>2026-09-12T07:40:37.000Z</time>
      </trkpt>
      <trkpt lat="41.300033" lon="-72.617927">
        <ele>17.010946</ele>
        <time>2026-09-12T07:40:47.000Z</time>
      </trkpt>
      <trkpt lat="41.298506" lon="-72.61705">
        <ele>18.160157</ele>
        <time>2026-09-12T07:41:05.000Z</time>
      </trkpt>
      <trkpt lat="41.298031" lon="-72.616837">
        <ele>17.639771</ele>
        <time>2026-09-12T07:41:11.000Z</time>
      </trkpt>
      <trkpt lat="41.297794" lon="-72.61673">
        <ele>17.370437</ele>
        <time>2026-09-12T07:41:14.000Z</time>
      </trkpt>
      <trkpt lat="41.297378" lon="-72.616623">
        <ele>16.920911</ele>
        <time>2026-09-12T07:41:19.000Z</time>
      </trkpt>
      <trkpt lat="41.297107" lon="-72.616478">
        <ele>16.619398</ele>
        <time>2026-09-12T07:41:22.000Z</time>
      </trkpt>
      <trkpt lat="41.296253" lon="-72.615741">
        <ele>13.844439</ele>
        <time>2026-09-12T07:41:33.000Z</time>
      </trkpt>
      <trkpt lat="41.29601" lon="-72.615485">
        <ele>12.983187</ele>
        <time>2026-09-12T07:41:36.000Z</time>
      </trkpt>
      <trkpt lat="41.295897" lon="-72.615314">
        <ele>12.451104</ele>
        <time>2026-09-12T07:41:38.000Z</time>
      </trkpt>
      <trkpt lat="41.295773" lon="-72.615128">
        <ele>11.943996</ele>
        <time>2026-09-12T07:41:40.000Z</time>
      </trkpt>
      <trkpt lat="41.295686" lon="-72.614835">
        <ele>11.306374</ele>
        <time>2026-09-12T07:41:43.000Z</time>
      </trkpt>
      <trkpt lat="41.295643" lon="-72.61463">
        <ele>11.014673</ele>
        <time>2026-09-12T07:41:45.000Z</time>
      </trkpt>
      <trkpt lat="41.295649" lon="-72.61356">
        <ele>9.611059</ele>
        <time>2026-09-12T07:41:54.000Z</time>
      </trkpt>
      <trkpt lat="41.295609" lon="-72.613277">
        <ele>9.221544</ele>
        <time>2026-09-12T07:41:56.000Z</time>
      </trkpt>
      <trkpt lat="41.295463" lon="-72.612879">
        <ele>8.642175</ele>
        <time>2026-09-12T07:42:00.000Z</time>
      </trkpt>
      <trkpt lat="41.295292" lon="-72.612643">
        <ele>8.222822</ele>
        <time>2026-09-12T07:42:03.000Z</time>
      </trkpt>
      <trkpt lat="41.295006" lon="-72.612369">
        <ele>8.383003</ele>
        <time>2026-09-12T07:42:07.000Z</time>
      </trkpt>
      <trkpt lat="41.294469" lon="-72.611833">
        <ele>8.691034</ele>
        <time>2026-09-12T07:42:14.000Z</time>
      </trkpt>
      <trkpt lat="41.294271" lon="-72.611695">
        <ele>8.789822</ele>
        <time>2026-09-12T07:42:16.000Z</time>
      </trkpt>
      <trkpt lat="41.294144" lon="-72.611607">
        <ele>8.855867</ele>
        <time>2026-09-12T07:42:18.000Z</time>
      </trkpt>
      <trkpt lat="41.293839" lon="-72.611433">
        <ele>9.008709</ele>
        <time>2026-09-12T07:42:22.000Z</time>
      </trkpt>
      <trkpt lat="41.292784" lon="-72.611035">
        <ele>9.321012</ele>
        <time>2026-09-12T07:42:34.000Z</time>
      </trkpt>
      <trkpt lat="41.292516" lon="-72.610931">
        <ele>9.3994</ele>
        <time>2026-09-12T07:42:37.000Z</time>
      </trkpt>
      <trkpt lat="41.292284" lon="-72.610903">
        <ele>9.462291</ele>
        <time>2026-09-12T07:42:40.000Z</time>
      </trkpt>
      <trkpt lat="41.291996" lon="-72.610906">
        <ele>9.506951</ele>
        <time>2026-09-12T07:42:43.000Z</time>
      </trkpt>
      <trkpt lat="41.291839" lon="-72.610913">
        <ele>9.392155</ele>
        <time>2026-09-12T07:42:45.000Z</time>
      </trkpt>
      <trkpt lat="41.291009" lon="-72.611081">
        <ele>8.757035</ele>
        <time>2026-09-12T07:42:54.000Z</time>
      </trkpt>
      <trkpt lat="41.290565" lon="-72.611304">
        <ele>8.394628</ele>
        <time>2026-09-12T07:42:59.000Z</time>
      </trkpt>
      <trkpt lat="41.289939" lon="-72.611591">
        <ele>8.069974</ele>
        <time>2026-09-12T07:43:06.000Z</time>
      </trkpt>
      <trkpt lat="41.289628" lon="-72.611682">
        <ele>7.980412</ele>
        <time>2026-09-12T07:43:10.000Z</time>
      </trkpt>
      <trkpt lat="41.289294" lon="-72.611708">
        <ele>7.891334</ele>
        <time>2026-09-12T07:43:14.000Z</time>
      </trkpt>
      <trkpt lat="41.288797" lon="-72.611731">
        <ele>7.75843</ele>
        <time>2026-09-12T07:43:20.000Z</time>
      </trkpt>
      <trkpt lat="41.288466" lon="-72.61179">
        <ele>7.661879</ele>
        <time>2026-09-12T07:43:24.000Z</time>
      </trkpt>
      <trkpt lat="41.288136" lon="-72.611977">
        <ele>7.486831</ele>
        <time>2026-09-12T07:43:28.000Z</time>
      </trkpt>
      <trkpt lat="41.287766" lon="-72.612173">
        <ele>7.29566</ele>
        <time>2026-09-12T07:43:32.000Z</time>
      </trkpt>
      <trkpt lat="41.287464" lon="-72.612231">
        <ele>7.149909</ele>
        <time>2026-09-12T07:43:35.000Z</time>
      </trkpt>
      <trkpt lat="41.28713" lon="-72.612256">
        <ele>6.981146</ele>
        <time>2026-09-12T07:43:39.000Z</time>
      </trkpt>
      <trkpt lat="41.28675" lon="-72.612235">
        <ele>6.801855</ele>
        <time>2026-09-12T07:43:43.000Z</time>
      </trkpt>
      <trkpt lat="41.286284" lon="-72.612112">
        <ele>6.535462</ele>
        <time>2026-09-12T07:43:48.000Z</time>
      </trkpt>
      <trkpt lat="41.285951" lon="-72.611965">
        <ele>6.339219</ele>
        <time>2026-09-12T07:43:52.000Z</time>
      </trkpt>
      <trkpt lat="41.285705" lon="-72.611786">
        <ele>6.17779</ele>
        <time>2026-09-12T07:43:55.000Z</time>
      </trkpt>
      <trkpt lat="41.285619" lon="-72.611693">
        <ele>6.11947</ele>
        <time>2026-09-12T07:43:56.000Z</time>
      </trkpt>
      <trkpt lat="41.285504" lon="-72.61144">
        <ele>5.992083</ele>
        <time>2026-09-12T07:43:58.000Z</time>
      </trkpt>
      <trkpt lat="41.28507" lon="-72.610292">
        <ele>6.382257</ele>
        <time>2026-09-12T07:44:09.000Z</time>
      </trkpt>
      <trkpt lat="41.284252" lon="-72.608271">
        <ele>8.053443</ele>
        <time>2026-09-12T07:44:28.000Z</time>
      </trkpt>
      <trkpt lat="41.283979" lon="-72.607643">
        <ele>8.669341</ele>
        <time>2026-09-12T07:44:34.000Z</time>
      </trkpt>
      <trkpt lat="41.283874" lon="-72.607634">
        <ele>8.770092</ele>
        <time>2026-09-12T07:44:35.000Z</time>
      </trkpt>
      <trkpt lat="41.283761" lon="-72.607633">
        <ele>8.898636</ele>
        <time>2026-09-12T07:44:36.000Z</time>
      </trkpt>
      <trkpt lat="41.283668" lon="-72.607608">
        <ele>9.006204</ele>
        <time>2026-09-12T07:44:37.000Z</time>
      </trkpt>
      <trkpt lat="41.283559" lon="-72.607553">
        <ele>9.138141</ele>
        <time>2026-09-12T07:44:38.000Z</time>
      </trkpt>
      <trkpt lat="41.282461" lon="-72.606765">
        <ele>9.303776</ele>
        <time>2026-09-12T07:44:52.000Z</time>
      </trkpt>
      <trkpt lat="41.282429" lon="-72.606738">
        <ele>9.297307</ele>
        <time>2026-09-12T07:44:52.000Z</time>
      </trkpt>
      <trkpt lat="41.282364" lon="-72.606753">
        <ele>9.289989</ele>
        <time>2026-09-12T07:44:53.000Z</time>
      </trkpt>
      <trkpt lat="41.28228" lon="-72.606838">
        <ele>9.274984</ele>
        <time>2026-09-12T07:44:54.000Z</time>
      </trkpt>
      <trkpt lat="41.282152" lon="-72.606606">
        <ele>9.244963</ele>
        <time>2026-09-12T07:44:56.000Z</time>
      </trkpt>
      <trkpt lat="41.282124" lon="-72.60654">
        <ele>9.237288</ele>
        <time>2026-09-12T07:44:57.000Z</time>
      </trkpt>
      <trkpt lat="41.281719" lon="-72.605718">
        <ele>9.257553</ele>
        <time>2026-09-12T07:45:05.000Z</time>
      </trkpt>
      <trkpt lat="41.281641" lon="-72.605581">
        <ele>9.2776</ele>
        <time>2026-09-12T07:45:06.000Z</time>
      </trkpt>
      <trkpt lat="41.281378" lon="-72.605287">
        <ele>9.330495</ele>
        <time>2026-09-12T07:45:10.000Z</time>
      </trkpt>
      <trkpt lat="41.281013" lon="-72.604995">
        <ele>9.399551</ele>
        <time>2026-09-12T07:45:15.000Z</time>
      </trkpt>
      <trkpt lat="41.280665" lon="-72.604731">
        <ele>9.461349</ele>
        <time>2026-09-12T07:45:19.000Z</time>
      </trkpt>
      <trkpt lat="41.280883" lon="-72.604149">
        <ele>9.338889</ele>
        <time>2026-09-12T07:45:24.000Z</time>
      </trkpt>
      <trkpt lat="41.281255" lon="-72.602968">
        <ele>9.029514</ele>
        <time>2026-09-12T07:45:35.000Z</time>
      </trkpt>
      <trkpt lat="41.28131" lon="-72.602644">
        <ele>8.946328</ele>
        <time>2026-09-12T07:45:38.000Z</time>
      </trkpt>
      <trkpt lat="41.281326" lon="-72.602481">
        <ele>8.905704</ele>
        <time>2026-09-12T07:45:39.000Z</time>
      </trkpt>
      <trkpt lat="41.281267" lon="-72.601832">
        <ele>8.523493</ele>
        <time>2026-09-12T07:45:44.000Z</time>
      </trkpt>
      <trkpt lat="41.281241" lon="-72.601389">
        <ele>8.253265</ele>
        <time>2026-09-12T07:45:48.000Z</time>
      </trkpt>
      <trkpt lat="41.281223" lon="-72.601121">
        <ele>8.081008</ele>
        <time>2026-09-12T07:45:50.000Z</time>
      </trkpt>
      <trkpt lat="41.281219" lon="-72.600663">
        <ele>7.804698</ele>
        <time>2026-09-12T07:45:54.000Z</time>
      </trkpt>
      <trkpt lat="41.280957" lon="-72.600587">
        <ele>7.584021</ele>
        <time>2026-09-12T07:45:57.000Z</time>
      </trkpt>
      <trkpt lat="41.280486" lon="-72.600462">
        <ele>7.255904</ele>
        <time>2026-09-12T07:46:02.000Z</time>
      </trkpt>
      <trkpt lat="41.27933" lon="-72.600139">
        <ele>6.599942</ele>
        <time>2026-09-12T07:46:15.000Z</time>
      </trkpt>
      <trkpt lat="41.279255" lon="-72.600112">
        <ele>6.555116</ele>
        <time>2026-09-12T07:46:16.000Z</time>
      </trkpt>
      <trkpt lat="41.279202" lon="-72.60048">
        <ele>6.403468</ele>
        <time>2026-09-12T07:46:19.000Z</time>
      </trkpt>
      <trkpt lat="41.2792" lon="-72.600554">
        <ele>6.407266</ele>
        <time>2026-09-12T07:46:20.000Z</time>
      </trkpt>
      <trkpt lat="41.279146" lon="-72.600969">
        <ele>6.451184</ele>
        <time>2026-09-12T07:46:24.000Z</time>
      </trkpt>
      <trkpt lat="41.278889" lon="-72.600908">
        <ele>6.488959</ele>
        <time>2026-09-12T07:46:27.000Z</time>
      </trkpt>
      <trkpt lat="41.278828" lon="-72.600888">
        <ele>6.498247</ele>
        <time>2026-09-12T07:46:28.000Z</time>
      </trkpt>
      <trkpt lat="41.277605" lon="-72.600593">
        <ele>6.587066</ele>
        <time>2026-09-12T07:46:42.000Z</time>
      </trkpt>
      <trkpt lat="41.27699" lon="-72.600442">
        <ele>6.265933</ele>
        <time>2026-09-12T07:46:49.000Z</time>
      </trkpt>
      <trkpt lat="41.276857" lon="-72.600409">
        <ele>6.202691</ele>
        <time>2026-09-12T07:46:51.000Z</time>
      </trkpt>
      <trkpt lat="41.276282" lon="-72.600429">
        <ele>5.915689</ele>
        <time>2026-09-12T07:46:57.000Z</time>
      </trkpt>
      <trkpt lat="41.276278" lon="-72.600432">
        <ele>5.90917</ele>
        <time>2026-09-12T07:46:57.000Z</time>
      </trkpt>
      <trkpt lat="41.276005" lon="-72.600457">
        <ele>5.770692</ele>
        <time>2026-09-12T07:47:00.000Z</time>
      </trkpt>
      <trkpt lat="41.27528" lon="-72.600491">
        <ele>5.044152</ele>
        <time>2026-09-12T07:47:08.000Z</time>
      </trkpt>
      <trkpt lat="41.275084" lon="-72.600519">
        <ele>4.841409</ele>
        <time>2026-09-12T07:47:10.000Z</time>
      </trkpt>
      <trkpt lat="41.27479" lon="-72.600521">
        <ele>4.534227</ele>
        <time>2026-09-12T07:47:13.000Z</time>
      </trkpt>
      <trkpt lat="41.2736" lon="-72.600649">
        <ele>3.617621</ele>
        <time>2026-09-12T07:47:26.000Z</time>
      </trkpt>
      <trkpt lat="41.273093" lon="-72.600682">
        <ele>3.378313</ele>
        <time>2026-09-12T07:47:32.000Z</time>
      </trkpt>
      <trkpt lat="41.273048" lon="-72.600687">
        <ele>3.357248</ele>
        <time>2026-09-12T07:47:33.000Z</time>
      </trkpt>
      <trkpt lat="41.272439" lon="-72.600731">
        <ele>3.062694</ele>
        <time>2026-09-12T07:47:40.000Z</time>
      </trkpt>
      <trkpt lat="41.272395" lon="-72.600733">
        <ele>3.047857</ele>
        <time>2026-09-12T07:47:40.000Z</time>
      </trkpt>
      <trkpt lat="41.272315" lon="-72.600751">
        <ele>3.011499</ele>
        <time>2026-09-12T07:47:41.000Z</time>
      </trkpt>
      <trkpt lat="41.272172" lon="-72.600755">
        <ele>2.955115</ele>
        <time>2026-09-12T07:47:43.000Z</time>
      </trkpt>
      <trkpt lat="41.272062" lon="-72.600754">
        <ele>2.914953</ele>
        <time>2026-09-12T07:47:44.000Z</time>
      </trkpt>
      <trkpt lat="41.271905" lon="-72.600782">
        <ele>2.855477</ele>
        <time>2026-09-12T07:47:46.000Z</time>
      </trkpt>
      <trkpt lat="41.271473" lon="-72.600809">
        <ele>2.684737</ele>
        <time>2026-09-12T07:47:51.000Z</time>
      </trkpt>
      <trkpt lat="41.271493" lon="-72.601663">
        <ele>2.437869</ele>
        <time>2026-09-12T07:47:58.000Z</time>
      </trkpt>
      <trkpt lat="41.27151" lon="-72.602059">
        <ele>2.304866</ele>
        <time>2026-09-12T07:48:01.000Z</time>
      </trkpt>
      <trkpt lat="41.271535" lon="-72.602872">
        <ele>1.873266</ele>
        <time>2026-09-12T07:48:08.000Z</time>
      </trkpt>
      <trkpt lat="41.271535" lon="-72.602979">
        <ele>1.816579</ele>
        <time>2026-09-12T07:48:09.000Z</time>
      </trkpt>
      <trkpt lat="41.271559" lon="-72.60369">
        <ele>1.43952</ele>
        <time>2026-09-12T07:48:15.000Z</time>
      </trkpt>
      <trkpt lat="41.271563" lon="-72.604322">
        <ele>1.112379</ele>
        <time>2026-09-12T07:48:20.000Z</time>
      </trkpt>
      <trkpt lat="41.271569" lon="-72.604694">
        <ele>1.083824</ele>
        <time>2026-09-12T07:48:23.000Z</time>
      </trkpt>
      <trkpt lat="41.271586" lon="-72.604775">
        <ele>1.08719</ele>
        <time>2026-09-12T07:48:24.000Z</time>
      </trkpt>
      <trkpt lat="41.27159" lon="-72.605729">
        <ele>1.12572</ele>
        <time>2026-09-12T07:48:32.000Z</time>
      </trkpt>
      <trkpt lat="41.27148" lon="-72.606366">
        <ele>1.151615</ele>
        <time>2026-09-12T07:48:37.000Z</time>
      </trkpt>
      <trkpt lat="41.271418" lon="-72.606675">
        <ele>1.164759</ele>
        <time>2026-09-12T07:48:40.000Z</time>
      </trkpt>
      <trkpt lat="41.271372" lon="-72.607093">
        <ele>1.36961</ele>
        <time>2026-09-12T07:48:44.000Z</time>
      </trkpt>
      <trkpt lat="41.271367" lon="-72.607157">
        <ele>1.404971</ele>
        <time>2026-09-12T07:48:45.000Z</time>
      </trkpt>
      <trkpt lat="41.271373" lon="-72.607962">
        <ele>1.8819</ele>
        <time>2026-09-12T07:48:52.000Z</time>
      </trkpt>
      <trkpt lat="41.271686" lon="-72.607928">
        <ele>2.131722</ele>
        <time>2026-09-12T07:48:55.000Z</time>
      </trkpt>
      <trkpt lat="41.271834" lon="-72.607926">
        <ele>2.248663</ele>
        <time>2026-09-12T07:48:57.000Z</time>
      </trkpt>
      <trkpt lat="41.272221" lon="-72.607886">
        <ele>2.551517</ele>
        <time>2026-09-12T07:49:01.000Z</time>
      </trkpt>
      <trkpt lat="41.272287" lon="-72.607891">
        <ele>2.59995682431</ele>
        <time>2026-09-12T07:49:02.000Z</time>
      </trkpt>
      <trkpt lat="41.272601" lon="-72.60786">
        <ele>2.83067282118</ele>
        <time>2026-09-12T07:49:06.000Z</time>
      </trkpt>
      <trkpt lat="41.272604" lon="-72.608175">
        <ele>3.00416352529</ele>
        <time>2026-09-12T07:49:09.000Z</time>
      </trkpt>
      <trkpt lat="41.272612" lon="-72.608336">
        <ele>3.0930229929</ele>
        <time>2026-09-12T07:49:10.000Z</time>
      </trkpt>
      <trkpt lat="41.272672" lon="-72.609356">
        <ele>3.65647484614</ele>
        <time>2026-09-12T07:49:19.000Z</time>
      </trkpt>
    </trkseg>
  </trk>
</gpx>

<!--
Performance optimized by W3 Total Cache. Learn more: https://www.boldgrid.com/w3-total-cache/?utm_source=w3tc&utm_medium=footer_comment&utm_campaign=free_plugin

Page Caching using Disk: Enhanced{w3tc_pagecache_reject_reason} 

Served from: www.aquabike.world @ 2026-05-10 19:58:49 by W3 Total Cache
-->